Time;durP1;ratioP1;P1;durP2;ratioP2;P2;SDS_P1;SDS_P2;PMS_P1;PMS_P2;Temp;Humidity;BMP_temperature;BMP_pressure;BME280_temperature;BME280_humidity;BME280_pressure;Samples;Min_cycle;Max_cycle;Signal;HPM_P1;HPM_P2
2022/11/04 00:01:25;;;;;;;18.95;13.25;;;11.60;99.90;;;;;;5005788;28;20171;-73
2022/11/04 00:03:52;;;;;;;18.10;13.82;;;11.60;99.90;;;;;;5021634;28;20410;-73
2022/11/04 00:06:17;;;;;;;17.65;12.98;;;11.60;99.90;;;;;;5044661;28;20556;-74
2022/11/04 00:08:51;;;;;;;19.70;13.93;;;11.60;99.90;;;;;;5024634;28;20093;-74
2022/11/04 00:14:01;;;;;;;19.13;13.68;;;11.60;99.90;;;;;;5023892;28;20506;-74
2022/11/04 00:19:11;;;;;;;16.83;11.18;;;11.60;99.90;;;;;;5025124;28;20049;-74
2022/11/04 00:29:51;;;;;;;7.63;5.43;;;11.50;99.90;;;;;;5024749;28;20049;-73
2022/11/04 00:35:00;;;;;;;8.43;4.65;;;11.50;99.90;;;;;;5022980;28;20135;-73
2022/11/04 00:37:26;;;;;;;6.70;3.30;;;11.40;99.90;;;;;;5022129;28;20144;-73
2022/11/04 00:39:52;;;;;;;4.80;1.90;;;11.40;99.90;;;;;;5019968;28;20057;-73
2022/11/04 00:42:18;;;;;;;5.68;1.75;;;11.40;99.90;;;;;;5019112;28;20477;-73
2022/11/04 00:44:43;;;;;;;3.15;0.93;;;11.30;99.90;;;;;;5023522;28;20092;-72
2022/11/04 00:47:09;;;;;;;3.38;1.10;;;11.30;99.90;;;;;;5002396;28;20043;-73
2022/11/04 00:49:34;;;;;;;2.20;0.93;;;11.20;99.90;;;;;;5022040;28;20068;-71
2022/11/04 00:52:00;;;;;;;2.97;0.88;;;11.20;99.90;;;;;;5018928;28;20126;-73
2022/11/04 00:54:26;;;;;;;4.15;0.82;;;11.20;99.90;;;;;;5019207;28;20179;-73
2022/11/04 00:56:52;;;;;;;2.50;0.93;;;11.10;99.90;;;;;;5000980;28;20060;-72
2022/11/04 00:59:18;;;;;;;2.13;0.88;;;11.10;99.90;;;;;;5017158;28;20041;-73
2022/11/04 01:01:44;;;;;;;3.42;0.65;;;11.10;99.90;;;;;;5006455;28;20033;-73
2022/11/04 01:04:10;;;;;;;3.08;0.77;;;11.10;99.90;;;;;;5020718;28;20498;-73
2022/11/04 01:06:36;;;;;;;3.90;0.73;;;11.10;99.90;;;;;;5011887;28;20053;-73
2022/11/04 01:09:07;;;;;;;4.45;0.60;;;11.00;99.90;;;;;;5015416;28;20513;-73
2022/11/04 01:11:36;;;;;;;2.78;0.63;;;11.00;99.90;;;;;;5011692;28;20057;-72
2022/11/04 01:14:01;;;;;;;5.97;0.63;;;11.00;99.90;;;;;;4997773;28;20491;-73
2022/11/04 01:16:28;;;;;;;1.98;0.50;;;11.00;99.90;;;;;;5011827;28;20075;-71
2022/11/04 01:18:54;;;;;;;2.00;0.55;;;11.00;99.90;;;;;;5013298;28;20244;-72
2022/11/04 01:21:19;;;;;;;1.73;0.75;;;11.00;99.90;;;;;;5013276;28;20045;-72
2022/11/04 01:23:46;;;;;;;1.73;0.60;;;11.00;99.90;;;;;;5014935;28;20079;-72
2022/11/04 01:26:14;;;;;;;2.00;0.70;;;11.10;99.90;;;;;;5017555;28;20418;-73
2022/11/04 01:28:40;;;;;;;3.13;0.70;;;11.00;99.90;;;;;;5016501;28;20069;-74
2022/11/04 01:31:08;;;;;;;2.47;0.77;;;11.10;99.90;;;;;;5002890;28;20120;-74
2022/11/04 01:33:35;;;;;;;3.00;0.50;;;11.00;99.90;;;;;;5012592;28;20057;-73
2022/11/04 01:36:01;;;;;;;1.70;0.57;;;11.00;99.90;;;;;;5017172;28;20041;-73
2022/11/04 01:38:27;;;;;;;2.83;0.50;;;11.00;99.90;;;;;;5017595;28;20082;-72
2022/11/04 01:40:53;;;;;;;4.55;0.68;;;11.00;99.90;;;;;;5018327;28;20281;-72
2022/11/04 01:43:21;;;;;;;1.92;0.60;;;11.00;99.90;;;;;;4998615;28;20102;-72
2022/11/04 01:46:01;;;;;;;5.32;0.70;;;11.30;99.90;;;;;;5019006;28;20503;-72
2022/11/04 01:48:30;;;;;;;6.35;0.70;;;11.00;99.90;;;;;;5016400;28;20041;-72
2022/11/04 01:50:58;;;;;;;1.10;0.30;;;11.00;99.90;;;;;;5014751;28;20552;-71
2022/11/04 01:53:28;;;;;;;2.83;0.52;;;11.00;99.90;;;;;;5017341;28;20423;-72
2022/11/04 01:55:57;;;;;;;0.90;0.50;;;11.00;99.90;;;;;;5015751;28;20064;-73
2022/11/04 01:58:27;;;;;;;1.35;0.40;;;11.00;99.90;;;;;;5019060;28;20052;-72
2022/11/04 02:00:53;;;;;;;2.15;0.40;;;11.00;99.90;;;;;;5020549;28;20608;-72
2022/11/04 02:03:33;;;;;;;3.53;0.50;;;11.30;99.90;;;;;;5017982;28;20073;-73
2022/11/04 02:06:02;;;;;;;3.83;0.43;;;10.90;99.90;;;;;;5014792;28;20093;-72
2022/11/04 02:08:28;;;;;;;4.32;0.65;;;10.90;99.90;;;;;;5015186;28;20041;-72
2022/11/04 02:10:58;;;;;;;2.50;0.50;;;10.90;99.90;;;;;;5013904;28;20160;-72
2022/11/04 02:13:26;;;;;;;4.80;0.60;;;10.90;99.90;;;;;;4995242;28;20053;-72
2022/11/04 02:15:56;;;;;;;2.65;0.45;;;10.90;99.90;;;;;;5015585;28;20053;-72
2022/11/04 02:18:40;;;;;;;3.67;0.60;;;11.00;99.90;;;;;;5015131;28;20316;-72
2022/11/04 02:21:46;;;;;;;3.20;0.90;;;11.00;99.90;;;;;;5015841;28;20035;-72
2022/11/04 02:24:37;;;;;;;3.85;0.57;;;10.90;99.90;;;;;;5036097;28;20045;-72
2022/11/04 02:27:18;;;;;;;5.50;0.70;;;10.90;99.90;;;;;;5007339;28;20147;-72
2022/11/04 02:30:00;;;;;;;8.18;0.70;;;10.90;99.90;;;;;;4997708;28;20534;-72
2022/11/04 02:32:44;;;;;;;7.25;0.90;;;10.90;99.90;;;;;;5016945;28;20143;-72
2022/11/04 02:35:17;;;;;;;5.47;0.70;;;10.80;99.90;;;;;;5010268;28;20057;-72
2022/11/04 02:38:14;;;;;;;8.95;1.08;;;10.80;99.90;;;;;;5010413;28;20048;-72
2022/11/04 02:40:45;;;;;;;3.20;0.80;;;10.80;99.90;;;;;;5012204;28;20121;-73
2022/11/04 02:43:21;;;;;;;5.97;0.70;;;10.80;99.90;;;;;;5019249;28;20044;-72
2022/11/04 02:45:51;;;;;;;7.88;1.13;;;10.80;99.90;;;;;;5015872;28;20046;-71
2022/11/04 02:48:23;;;;;;;8.07;0.80;;;10.80;99.90;;;;;;5015355;28;20041;-72
2022/11/04 02:51:02;;;;;;;8.00;1.00;;;10.80;99.90;;;;;;5009253;28;20103;-72
2022/11/04 02:53:47;;;;;;;5.22;0.70;;;10.80;99.90;;;;;;5037326;28;20047;-73
2022/11/04 02:56:15;;;;;;;5.03;1.33;;;10.80;99.90;;;;;;5014388;28;20037;-73
2022/11/04 02:58:49;;;;;;;5.35;0.93;;;10.70;99.90;;;;;;5003659;28;20097;-73
2022/11/04 03:01:17;;;;;;;5.95;1.05;;;10.80;99.90;;;;;;5018040;28;20471;-73
2022/11/04 03:03:51;;;;;;;4.65;0.60;;;10.70;99.90;;;;;;4999290;28;20132;-73
2022/11/04 03:06:21;;;;;;;12.80;1.00;;;10.80;99.90;;;;;;5014459;28;20076;-73
2022/11/04 03:08:51;;;;;;;8.18;0.93;;;10.70;99.90;;;;;;5019283;28;20041;-74
2022/11/04 03:11:28;;;;;;;5.13;0.80;;;10.70;99.90;;;;;;5022046;28;20041;-73
2022/11/04 03:14:03;;;;;;;4.82;0.68;;;10.70;99.90;;;;;;5015715;28;20187;-73
2022/11/04 03:16:55;;;;;;;4.78;0.60;;;10.70;99.90;;;;;;5020855;28;20118;-73
2022/11/04 03:19:56;;;;;;;5.70;1.45;;;10.60;99.90;;;;;;5005861;28;20406;-72
2022/11/04 03:22:28;;;;;;;5.53;0.80;;;10.60;99.90;;;;;;5023054;28;20061;-73
2022/11/04 03:24:54;;;;;;;6.75;1.17;;;10.70;99.90;;;;;;5019013;28;20030;-72
2022/11/04 03:27:34;;;;;;;3.72;0.60;;;10.70;99.90;;;;;;5012173;28;20052;-72
2022/11/04 03:30:10;;;;;;;5.05;0.80;;;10.70;99.90;;;;;;5028356;28;22241;-72
2022/11/04 03:33:04;;;;;;;4.68;0.82;;;10.70;99.90;;;;;;5014195;28;20467;-73
2022/11/04 03:35:30;;;;;;;4.78;0.90;;;10.70;99.90;;;;;;5017252;28;20598;-72
2022/11/04 03:37:56;;;;;;;7.35;0.90;;;10.70;99.90;;;;;;4999648;28;20187;-73
2022/11/04 03:40:23;;;;;;;3.10;0.55;;;10.70;99.90;;;;;;5000599;28;20450;-73
2022/11/04 03:42:58;;;;;;;5.38;0.82;;;10.70;99.90;;;;;;5018577;28;20049;-73
2022/11/04 03:45:24;;;;;;;4.95;0.93;;;10.70;99.90;;;;;;5016342;28;20120;-73
2022/11/04 03:47:51;;;;;;;6.40;0.90;;;10.70;99.90;;;;;;5018300;28;20537;-72
2022/11/04 03:50:28;;;;;;;8.45;0.65;;;10.90;99.90;;;;;;5009413;28;20041;-73
2022/11/04 03:52:54;;;;;;;8.02;0.93;;;10.70;99.90;;;;;;5021423;28;20509;-72
2022/11/04 03:55:25;;;;;;;7.65;0.88;;;10.70;99.90;;;;;;5003097;28;20042;-73
2022/11/04 03:57:55;;;;;;;;;;;10.70;99.90;;;;;;5014377;28;20372;-72
2022/11/04 04:00:22;;;;;;;9.05;0.98;;;10.70;99.90;;;;;;5009484;28;19929;-73
2022/11/04 04:03:00;;;;;;;5.18;0.88;;;10.70;99.90;;;;;;5002015;28;20057;-72
2022/11/04 04:05:34;;;;;;;6.20;0.95;;;10.70;99.90;;;;;;5019166;28;20137;-73
2022/11/04 04:08:12;;;;;;;9.20;1.90;;;10.60;99.90;;;;;;5010075;28;20041;-73
2022/11/04 04:10:54;;;;;;;8.50;1.27;;;10.70;99.90;;;;;;5013798;28;20045;-73
2022/11/04 04:13:47;;;;;;;4.47;0.90;;;10.60;99.90;;;;;;4999062;28;20136;-73
2022/11/04 04:16:24;;;;;;;4.63;0.90;;;10.60;99.90;;;;;;4998117;28;20041;-73
2022/11/04 04:19:13;;;;;;;4.68;0.90;;;10.60;99.90;;;;;;5009110;28;20059;-74
2022/11/04 04:21:44;;;;;;;6.07;0.90;;;10.60;99.90;;;;;;4996435;28;20053;-73
2022/11/04 04:29:45;;;;;;;5.35;0.63;;;10.50;99.90;;;;;;5019035;28;20717;-73
2022/11/04 04:32:12;;;;;;;3.92;0.88;;;10.50;99.90;;;;;;5021199;28;20080;-73
2022/11/04 04:34:38;;;;;;;9.35;1.00;;;10.50;99.90;;;;;;5012939;28;20058;-74
2022/11/04 04:37:21;;;;;;;3.58;0.70;;;10.50;99.90;;;;;;5015123;28;20054;-74
2022/11/04 04:44:58;;;;;;;6.30;0.93;;;10.40;99.90;;;;;;5023138;28;20479;-74
2022/11/04 04:45:51;;;;;;;5.38;0.85;;;10.60;99.90;;;;;;5017455;28;20046;-74
2022/11/04 04:48:17;;;;;;;5.68;0.80;;;10.40;99.90;;;;;;5013133;28;20137;-74
2022/11/04 04:50:50;;;;;;;2.95;0.50;;;10.40;99.90;;;;;;5010331;28;20128;-73
2022/11/04 04:53:16;;;;;;;3.20;0.60;;;10.40;99.90;;;;;;5012488;28;20048;-73
2022/11/04 04:55:41;;;;;;;3.38;0.80;;;10.40;99.90;;;;;;5007350;28;20401;-73
2022/11/04 04:58:07;;;;;;;7.03;0.82;;;10.30;99.90;;;;;;5010244;28;20046;-74
2022/11/04 05:00:33;;;;;;;4.68;0.80;;;10.30;99.90;;;;;;5007869;28;20639;-74
2022/11/04 05:02:59;;;;;;;8.35;1.00;;;10.30;99.90;;;;;;5012357;28;20091;-73
2022/11/04 05:05:25;;;;;;;8.23;0.93;;;10.30;99.90;;;;;;5020551;28;20056;-73
2022/11/04 05:07:51;;;;;;;6.15;0.60;;;10.30;99.90;;;;;;5001547;28;20041;-73
2022/11/04 05:10:17;;;;;;;5.30;0.60;;;10.30;99.90;;;;;;5024071;28;20056;-73
2022/11/04 05:15:28;;;;;;;4.05;0.77;;;10.30;99.90;;;;;;5017309;28;20049;-74
2022/11/04 05:17:55;;;;;;;3.83;0.60;;;10.20;99.90;;;;;;5022560;28;20646;-74
2022/11/04 05:20:21;;;;;;;5.00;0.90;;;10.20;99.90;;;;;;5023015;28;20052;-74
2022/11/04 05:22:47;;;;;;;6.20;1.05;;;10.20;99.90;;;;;;5023351;28;20037;-73
2022/11/04 05:25:13;;;;;;;1.67;0.60;;;10.20;99.90;;;;;;5022442;28;20089;-73
2022/11/04 05:27:38;;;;;;;6.13;0.60;;;10.20;99.90;;;;;;5020833;28;20053;-74
2022/11/04 05:30:04;;;;;;;7.53;0.95;;;10.20;99.90;;;;;;5023079;28;20041;-73
2022/11/04 05:32:30;;;;;;;3.60;0.90;;;10.20;99.90;;;;;;5022511;28;20050;-73
2022/11/04 05:34:56;;;;;;;1.33;0.50;;;10.20;99.90;;;;;;5013535;28;20327;-73
2022/11/04 05:37:22;;;;;;;3.33;0.60;;;10.20;99.90;;;;;;5002037;28;20038;-73
2022/11/04 05:39:48;;;;;;;5.30;0.63;;;10.10;99.90;;;;;;4991560;28;20059;-73
2022/11/04 05:42:13;;;;;;;2.13;0.40;;;10.20;99.90;;;;;;5018945;28;20053;-73
2022/11/04 05:44:39;;;;;;;3.85;0.60;;;10.10;99.90;;;;;;5020946;28;20471;-73
2022/11/04 05:47:05;;;;;;;1.75;0.50;;;10.10;99.90;;;;;;5018625;28;20049;-73
2022/11/04 05:49:32;;;;;;;3.33;0.60;;;10.10;99.90;;;;;;5013114;28;20399;-73
2022/11/04 05:51:58;;;;;;;5.63;0.63;;;10.10;99.90;;;;;;5009265;28;20107;-72
2022/11/04 05:54:23;;;;;;;5.65;0.60;;;10.10;99.90;;;;;;5012257;28;20050;-73
2022/11/04 05:56:49;;;;;;;5.63;0.70;;;10.10;99.90;;;;;;5017372;28;20510;-73
2022/11/04 05:59:15;;;;;;;2.75;0.70;;;10.10;99.90;;;;;;5037867;28;20054;-72
2022/11/04 06:01:42;;;;;;;4.13;0.65;;;10.10;99.90;;;;;;5010075;28;20050;-73
2022/11/04 06:04:13;;;;;;;2.55;0.60;;;10.00;99.90;;;;;;5008437;28;20085;-73
2022/11/04 06:06:39;;;;;;;4.60;0.80;;;10.00;99.90;;;;;;5017261;28;20054;-73
2022/11/04 06:09:05;;;;;;;3.15;0.70;;;10.00;99.90;;;;;;5012293;28;20095;-73
2022/11/04 06:11:32;;;;;;;5.88;0.68;;;10.00;99.90;;;;;;5016171;28;20491;-73
2022/11/04 06:13:58;;;;;;;3.05;0.55;;;10.00;99.90;;;;;;5017801;28;20091;-73
2022/11/04 06:16:24;;;;;;;2.35;0.70;;;10.00;99.90;;;;;;5006111;28;20049;-73
2022/11/04 06:18:50;;;;;;;5.30;0.60;;;9.90;99.90;;;;;;5001137;28;20053;-73
2022/11/04 06:21:17;;;;;;;4.35;0.88;;;9.90;99.90;;;;;;5002970;28;20519;-73
2022/11/04 06:23:43;;;;;;;6.50;1.50;;;10.00;99.90;;;;;;5009184;28;20537;-73
2022/11/04 06:26:11;;;;;;;5.97;0.80;;;9.90;99.90;;;;;;5001817;28;20128;-74
2022/11/04 06:28:40;;;;;;;5.93;1.10;;;9.90;99.90;;;;;;5001146;28;20507;-73
2022/11/04 06:31:09;;;;;;;3.30;0.80;;;9.80;99.90;;;;;;4990128;28;20111;-73
2022/11/04 06:33:34;;;;;;;4.55;0.98;;;9.80;99.90;;;;;;5001959;28;20419;-73
2022/11/04 06:36:02;;;;;;;5.75;1.10;;;9.80;99.90;;;;;;5013882;28;20052;-73
2022/11/04 06:38:30;;;;;;;6.43;0.98;;;9.80;99.90;;;;;;5009699;28;20821;-73
2022/11/04 06:40:57;;;;;;;5.35;1.30;;;9.70;99.90;;;;;;5000561;28;20092;-73
2022/11/04 06:43:23;;;;;;;4.75;1.40;;;9.70;99.90;;;;;;5000579;28;20406;-73
2022/11/04 06:46:33;;;;;;;3.67;1.00;;;9.70;99.90;;;;;;5024003;28;20414;-73
2022/11/04 06:48:59;;;;;;;7.95;1.48;;;9.70;99.90;;;;;;4996405;28;20041;-73
2022/11/04 06:51:25;;;;;;;6.68;1.33;;;9.90;99.90;;;;;;5015969;28;20045;-73
2022/11/04 06:53:50;;;;;;;5.38;1.00;;;9.70;99.90;;;;;;5012409;28;20095;-73
2022/11/04 06:56:16;;;;;;;8.23;1.13;;;9.60;99.90;;;;;;4998678;28;20125;-73
2022/11/04 06:58:42;;;;;;;5.43;1.10;;;9.60;99.90;;;;;;5012261;28;20570;-72
2022/11/04 07:01:08;;;;;;;4.70;0.90;;;9.60;99.90;;;;;;5014861;28;20049;-72
2022/11/04 07:03:34;;;;;;;6.25;1.23;;;9.50;99.90;;;;;;5009962;28;20042;-73
2022/11/04 07:06:05;;;;;;;3.78;1.00;;;9.60;99.90;;;;;;5013180;28;20063;-73
2022/11/04 07:08:31;;;;;;;3.85;1.00;;;9.60;99.90;;;;;;5013385;28;20591;-73
2022/11/04 07:10:57;;;;;;;7.40;1.15;;;9.60;99.90;;;;;;5011460;28;20185;-72
2022/11/04 07:13:23;;;;;;;6.45;1.33;;;9.60;99.90;;;;;;5038582;28;20414;-73
2022/11/04 07:15:48;;;;;;;2.45;0.90;;;9.50;99.90;;;;;;5015581;28;20084;-74
2022/11/04 07:18:14;;;;;;;4.93;1.17;;;9.50;99.90;;;;;;5019820;28;20033;-73
2022/11/04 07:20:40;;;;;;;6.20;1.25;;;9.60;99.90;;;;;;5018519;28;20542;-73
2022/11/04 07:23:06;;;;;;;4.95;1.05;;;9.70;99.90;;;;;;5013362;28;20552;-74
2022/11/04 07:25:32;;;;;;;3.83;0.95;;;9.60;99.90;;;;;;5012818;28;20044;-73
2022/11/04 07:27:57;;;;;;;4.63;0.90;;;9.60;99.90;;;;;;5011228;28;20048;-73
2022/11/04 07:30:23;;;;;;;5.60;1.08;;;9.60;99.90;;;;;;5020841;28;20354;-73
2022/11/04 07:32:49;;;;;;;5.93;1.10;;;9.60;99.90;;;;;;5015329;28;20053;-73
2022/11/04 07:35:14;;;;;;;7.13;1.55;;;9.60;99.90;;;;;;5019575;28;20049;-73
2022/11/04 07:37:41;;;;;;;5.55;0.95;;;9.60;99.90;;;;;;5016445;28;20430;-73
2022/11/04 07:40:07;;;;;;;2.70;0.90;;;9.70;99.90;;;;;;5031061;28;20050;-73
2022/11/04 07:42:32;;;;;;;4.60;0.93;;;9.70;99.90;;;;;;5016352;28;20095;-73
2022/11/04 07:44:58;;;;;;;7.80;1.00;;;9.70;99.90;;;;;;5015981;28;20045;-73
2022/11/04 07:47:24;;;;;;;3.20;1.00;;;9.70;99.90;;;;;;5014452;28;20042;-73
2022/11/04 07:49:50;;;;;;;5.03;0.95;;;9.70;99.90;;;;;;5018561;28;20044;-73
2022/11/04 07:52:15;;;;;;;5.35;0.88;;;9.90;99.90;;;;;;5020496;28;20049;-73
2022/11/04 07:54:41;;;;;;;4.82;1.00;;;9.70;99.90;;;;;;5014812;28;20042;-73
2022/11/04 07:57:07;;;;;;;5.38;1.02;;;9.70;99.90;;;;;;5017113;28;20065;-73
2022/11/04 07:59:33;;;;;;;7.57;1.50;;;9.80;99.90;;;;;;5016135;28;20041;-72
2022/11/04 08:01:58;;;;;;;12.15;1.92;;;9.80;99.90;;;;;;5009610;28;20501;-72
2022/11/04 08:04:24;;;;;;;8.55;1.30;;;9.90;99.90;;;;;;5017953;28;20072;-72
2022/11/04 08:06:50;;;;;;;4.63;1.23;;;9.90;99.90;;;;;;5019050;28;20053;-72
2022/11/04 08:09:15;;;;;;;5.82;1.20;;;9.90;99.90;;;;;;5013873;28;20124;-73
2022/11/04 08:11:42;;;;;;;5.85;1.00;;;10.00;99.90;;;;;;5010422;28;20380;-72
2022/11/04 08:14:08;;;;;;;7.03;1.25;;;10.10;99.90;;;;;;4996072;28;20041;-72
2022/11/04 08:16:34;;;;;;;5.60;0.90;;;10.10;99.90;;;;;;5011559;28;20133;-72
2022/11/04 08:19:01;;;;;;;4.93;0.95;;;10.10;99.90;;;;;;5017160;28;20124;-73
2022/11/04 08:21:31;;;;;;;3.78;0.90;;;10.40;99.90;;;;;;5013699;28;20045;-72
2022/11/04 08:23:57;;;;;;;3.28;1.00;;;10.10;99.90;;;;;;5014680;28;20403;-72
2022/11/04 08:26:23;;;;;;;6.03;1.05;;;10.10;99.90;;;;;;4998415;28;20056;-72
2022/11/04 08:28:50;;;;;;;4.63;1.00;;;10.10;99.90;;;;;;5016093;28;20083;-72
2022/11/04 08:31:19;;;;;;;3.42;1.00;;;10.10;99.90;;;;;;5019088;28;20042;-72
2022/11/04 08:33:45;;;;;;;3.17;0.93;;;10.20;99.90;;;;;;5014922;28;20053;-72
2022/11/04 08:36:26;;;;;;;3.53;1.00;;;10.20;99.90;;;;;;4999410;28;20045;-72
2022/11/04 08:38:52;;;;;;;6.43;1.20;;;10.20;99.90;;;;;;5012437;28;20128;-72
2022/11/04 08:41:29;;;;;;;5.70;1.20;;;10.20;99.90;;;;;;5006004;28;20571;-72
2022/11/04 08:43:58;;;;;;;4.05;1.00;;;10.30;99.90;;;;;;5014449;28;21049;-72
2022/11/04 08:46:25;;;;;;;4.25;1.40;;;10.30;99.90;;;;;;5013335;28;20056;-72
2022/11/04 08:48:51;;;;;;;6.88;1.00;;;10.30;99.90;;;;;;5014226;28;20037;-72
2022/11/04 08:51:22;;;;;;;3.53;0.90;;;10.30;99.90;;;;;;5011662;28;20389;-73
2022/11/04 08:53:47;;;;;;;7.45;1.05;;;10.40;99.90;;;;;;5016395;28;20046;-72
2022/11/04 08:56:18;;;;;;;5.03;1.13;;;10.40;99.90;;;;;;5017169;28;20048;-72
2022/11/04 08:58:44;;;;;;;4.65;1.20;;;10.40;99.90;;;;;;5014261;28;20056;-72
2022/11/04 09:01:12;;;;;;;5.38;1.20;;;10.40;99.90;;;;;;5009416;28;20422;-73
2022/11/04 09:03:40;;;;;;;6.85;1.85;;;10.50;99.90;;;;;;5012286;28;20065;-74
2022/11/04 09:06:08;;;;;;;7.40;1.20;;;10.50;99.90;;;;;;5040199;28;20075;-71
2022/11/04 09:08:36;;;;;;;6.53;1.23;;;10.50;99.90;;;;;;5014727;28;20048;-73
2022/11/04 09:11:05;;;;;;;10.43;1.58;;;10.60;99.90;;;;;;5029135;28;20330;-71
2022/11/04 09:13:31;;;;;;;7.25;1.38;;;10.60;99.90;;;;;;5016685;28;20168;-73
2022/11/04 09:15:57;;;;;;;6.78;1.20;;;10.60;99.90;;;;;;5012257;28;20084;-73
2022/11/04 09:18:22;;;;;;;9.02;1.50;;;10.60;99.90;;;;;;5014363;28;20491;-72
2022/11/04 09:20:48;;;;;;;6.90;1.33;;;10.70;99.90;;;;;;5015842;28;20045;-72
2022/11/04 09:23:14;;;;;;;4.25;1.52;;;10.70;99.90;;;;;;5014940;28;21206;-72
2022/11/04 09:25:40;;;;;;;7.25;1.65;;;10.70;99.90;;;;;;5013233;28;20046;-72
2022/11/04 09:28:05;;;;;;;11.10;1.58;;;10.70;99.90;;;;;;5019486;28;20072;-72
2022/11/04 09:30:31;;;;;;;4.78;1.08;;;10.80;99.90;;;;;;5018854;28;20120;-72
2022/11/04 09:32:58;;;;;;;6.10;1.05;;;10.80;99.90;;;;;;5011540;28;20053;-73
2022/11/04 09:35:26;;;;;;;7.85;1.40;;;10.90;99.90;;;;;;5011883;28;20338;-71
2022/11/04 09:37:52;;;;;;;6.38;1.10;;;10.90;99.90;;;;;;5000878;28;20037;-72
2022/11/04 09:40:22;;;;;;;5.88;1.00;;;11.10;99.90;;;;;;5005775;28;20061;-72
2022/11/04 09:43:15;;;;;;;7.60;1.05;;;10.90;99.90;;;;;;5009648;28;20052;-73
2022/11/04 09:45:42;;;;;;;6.55;1.48;;;11.00;99.90;;;;;;5009603;28;20064;-72
2022/11/04 09:48:37;;;;;;;8.57;1.35;;;11.10;99.90;;;;;;5009237;28;20045;-72
2022/11/04 09:51:05;;;;;;;3.90;0.77;;;11.00;99.90;;;;;;4993020;28;20414;-72
2022/11/04 09:53:43;;;;;;;5.03;0.90;;;11.10;99.90;;;;;;4998814;28;20041;-71
2022/11/04 09:56:14;;;;;;;4.22;0.80;;;11.10;99.90;;;;;;5013503;28;20434;-73
2022/11/04 09:58:40;;;;;;;7.13;1.08;;;11.20;99.90;;;;;;5010278;28;20436;-72
2022/11/04 10:01:18;;;;;;;3.70;0.82;;;11.20;99.90;;;;;;4999665;28;20044;-71
2022/11/04 10:04:22;;;;;;;4.60;0.93;;;11.10;99.90;;;;;;5014322;28;20572;-72
2022/11/04 10:07:10;;;;;;;4.50;0.82;;;11.30;99.90;;;;;;5015078;28;20042;-72
2022/11/04 10:09:44;;;;;;;7.82;0.90;;;11.30;99.90;;;;;;5017340;28;20128;-73
2022/11/04 10:12:20;;;;;;;6.28;1.10;;;11.40;99.90;;;;;;5011736;28;20121;-72
2022/11/04 10:14:49;;;;;;;5.82;1.15;;;11.40;99.90;;;;;;5012519;28;20506;-72
2022/11/04 10:17:36;;;;;;;7.40;1.20;;;11.40;99.90;;;;;;5014013;28;20501;-72
2022/11/04 10:20:26;;;;;;;6.70;0.95;;;11.40;99.90;;;;;;5018315;28;20573;-73
2022/11/04 10:22:57;;;;;;;2.80;0.73;;;11.40;99.90;;;;;;5015233;28;20038;-73
2022/11/04 10:25:44;;;;;;;4.00;0.98;;;11.50;99.90;;;;;;5021293;28;20049;-72
2022/11/04 10:28:15;;;;;;;7.78;1.60;;;11.50;99.90;;;;;;5012700;28;20042;-73
2022/11/04 10:30:43;;;;;;;7.10;1.20;;;11.50;99.90;;;;;;5002204;28;20046;-73
2022/11/04 10:33:12;;;;;;;7.82;1.35;;;11.50;99.90;;;;;;5014210;28;20132;-72
2022/11/04 10:35:59;;;;;;;7.03;1.00;;;11.60;99.90;;;;;;5016975;28;20072;-73
2022/11/04 10:38:31;;;;;;;8.23;1.20;;;11.60;99.90;;;;;;4996441;28;20052;-73
2022/11/04 10:40:57;;;;;;;5.93;0.95;;;11.70;99.90;;;;;;5026445;28;20499;-73
2022/11/04 10:43:35;;;;;;;7.07;0.98;;;11.70;99.90;;;;;;5014269;28;20048;-73
2022/11/04 10:46:07;;;;;;;6.90;1.00;;;11.70;99.90;;;;;;5017993;28;20069;-72
2022/11/04 10:48:48;;;;;;;8.25;1.13;;;11.70;99.90;;;;;;5015660;28;20064;-72
2022/11/04 10:51:20;;;;;;;9.15;1.67;;;11.70;99.90;;;;;;5021367;28;20054;-72
2022/11/04 10:53:51;;;;;;;9.55;1.67;;;11.70;99.90;;;;;;5018302;28;20045;-73
2022/11/04 10:56:41;;;;;;;10.95;1.83;;;11.70;99.90;;;;;;5019301;28;20182;-72
2022/11/04 10:59:24;;;;;;;7.22;1.20;;;11.80;99.90;;;;;;5021065;28;20558;-72
2022/11/04 11:01:52;;;;;;;7.68;1.48;;;11.80;99.90;;;;;;5017108;28;20041;-72
2022/11/04 11:04:32;;;;;;;9.35;1.20;;;11.80;99.90;;;;;;5017094;28;20515;-73
2022/11/04 11:07:00;;;;;;;5.38;1.10;;;11.90;99.90;;;;;;5019645;28;20045;-72
2022/11/04 11:09:28;;;;;;;8.55;1.20;;;11.90;99.90;;;;;;5018797;28;20580;-72
2022/11/04 11:12:01;;;;;;;5.60;0.95;;;11.90;99.90;;;;;;5020238;28;20049;-73
2022/11/04 11:14:26;;;;;;;6.90;0.75;;;12.00;99.90;;;;;;5043006;28;20046;-73
2022/11/04 11:16:52;;;;;;;11.70;1.30;;;12.00;99.90;;;;;;5023071;28;20100;-73
2022/11/04 11:19:21;;;;;;;5.93;1.05;;;12.10;99.90;;;;;;5010221;28;20056;-73
2022/11/04 11:21:51;;;;;;;8.77;1.50;;;12.10;99.90;;;;;;5019899;28;20539;-73
2022/11/04 11:24:22;;;;;;;5.05;1.30;;;12.10;99.90;;;;;;5020305;28;20068;-72
2022/11/04 11:26:54;;;;;;;5.50;1.20;;;12.10;99.90;;;;;;5018568;28;20410;-72
2022/11/04 11:29:22;;;;;;;;;;;12.10;99.90;;;;;;5022129;28;20080;-73
2022/11/04 11:31:50;;;;;;;6.30;0.73;;;12.20;99.90;;;;;;5019037;28;19937;-73
2022/11/04 11:34:31;;;;;;;7.63;1.30;;;12.20;99.90;;;;;;5016503;28;20045;-72
2022/11/04 11:36:58;;;;;;;4.85;0.90;;;12.10;99.90;;;;;;5020325;28;20125;-73
2022/11/04 11:39:27;;;;;;;7.15;1.27;;;12.10;99.90;;;;;;5048925;28;20090;-73
2022/11/04 11:41:58;;;;;;;4.95;1.30;;;12.10;99.90;;;;;;5027091;28;20131;-73
2022/11/04 11:44:30;;;;;;;3.42;0.75;;;12.10;99.90;;;;;;5000289;28;20061;-71
2022/11/04 11:47:03;;;;;;;6.53;0.82;;;11.90;99.90;;;;;;5008875;28;20095;-72
2022/11/04 11:49:35;;;;;;;3.30;0.70;;;11.90;99.90;;;;;;5003831;28;20840;-72
2022/11/04 11:52:26;;;;;;;2.45;0.60;;;11.80;99.90;;;;;;4990787;28;20314;-72
2022/11/04 11:55:00;;;;;;;5.82;1.05;;;11.70;99.90;;;;;;5010242;28;20042;-71
2022/11/04 11:57:48;;;;;;;6.40;0.80;;;11.70;99.90;;;;;;5025200;28;20091;-72
2022/11/04 12:00:17;;;;;;;4.35;0.80;;;11.70;99.90;;;;;;5009032;28;20124;-72
2022/11/04 12:03:42;;;;;;;4.53;0.75;;;11.60;99.90;;;;;;5010591;28;20041;-72
2022/11/04 12:06:14;;;;;;;4.95;0.80;;;11.50;99.90;;;;;;4985086;28;20065;-71
2022/11/04 12:09:04;;;;;;;4.82;0.85;;;11.60;99.90;;;;;;5009959;28;20438;-72
2022/11/04 12:11:44;;;;;;;4.22;0.95;;;11.60;99.90;;;;;;5010385;28;20073;-73
2022/11/04 12:14:21;;;;;;;4.93;1.05;;;11.60;99.90;;;;;;4997666;28;20259;-72
2022/11/04 12:17:01;;;;;;;4.88;0.82;;;11.60;99.90;;;;;;5008052;28;20411;-72
2022/11/04 12:20:06;;;;;;;8.73;1.00;;;11.50;99.90;;;;;;5007873;28;20057;-72
2022/11/04 12:22:46;;;;;;;3.33;0.50;;;11.60;99.90;;;;;;4983984;28;20253;-72
2022/11/04 12:25:36;;;;;;;3.77;0.83;;;11.60;99.90;;;;;;5008236;28;21160;-72
2022/11/04 12:28:15;;;;;;;3.17;0.80;;;11.60;99.90;;;;;;5007743;28;20443;-72
2022/11/04 12:31:07;;;;;;;5.50;0.98;;;11.60;99.90;;;;;;5007072;28;20099;-73
2022/11/04 12:33:43;;;;;;;;;;;11.70;99.90;;;;;;5007542;28;20148;-72
2022/11/04 12:36:24;;;;;;;6.20;1.00;;;11.70;99.90;;;;;;5009477;28;19925;-73
2022/11/04 12:39:19;;;;;;;3.95;0.75;;;11.70;99.90;;;;;;5004596;28;20037;-72
2022/11/04 12:42:12;;;;;;;5.13;1.00;;;11.70;99.90;;;;;;5002736;28;20149;-73
2022/11/04 12:44:44;;;;;;;4.40;1.00;;;11.70;99.90;;;;;;5006041;28;20609;-73
2022/11/04 12:47:18;;;;;;;6.88;0.93;;;11.70;99.90;;;;;;5007916;28;20091;-72
2022/11/04 12:49:50;;;;;;;6.03;0.80;;;11.70;99.90;;;;;;5002581;28;21251;-73
2022/11/04 12:52:33;;;;;;;10.00;1.30;;;11.80;99.90;;;;;;5004319;28;20038;-73
2022/11/04 12:55:21;;;;;;;6.43;0.82;;;11.80;99.90;;;;;;4997033;28;20033;-72
2022/11/04 12:58:16;;;;;;;8.85;1.10;;;11.90;99.90;;;;;;4983045;28;20054;-73
2022/11/04 13:00:46;;;;;;;10.25;1.25;;;11.90;99.90;;;;;;5004693;28;20049;-73
2022/11/04 13:03:13;;;;;;;6.47;1.15;;;12.00;99.90;;;;;;5004895;28;20406;-72
2022/11/04 13:05:52;;;;;;;5.10;0.90;;;11.90;99.90;;;;;;5004132;28;20053;-72
2022/11/04 13:08:43;;;;;;;5.88;1.20;;;12.00;99.90;;;;;;5012209;28;20124;-72
2022/11/04 13:11:24;;;;;;;7.63;1.35;;;12.10;99.90;;;;;;5004133;28;20088;-73
2022/11/04 13:14:05;;;;;;;9.05;1.42;;;12.10;99.90;;;;;;5012625;28;20148;-73
2022/11/04 13:16:39;;;;;;;9.50;1.60;;;12.10;99.90;;;;;;5017134;28;20113;-72
2022/11/04 13:19:15;;;;;;;8.82;1.10;;;12.10;99.90;;;;;;5017852;28;20068;-73
2022/11/04 13:21:41;;;;;;;8.68;1.27;;;12.10;99.90;;;;;;5014325;28;20630;-73
2022/11/04 13:24:24;;;;;;;9.02;1.15;;;12.10;99.90;;;;;;5018827;28;20442;-73
2022/11/04 13:26:51;;;;;;;8.90;1.23;;;12.20;99.90;;;;;;5010963;28;20478;-73
2022/11/04 13:29:20;;;;;;;8.80;1.02;;;12.20;99.90;;;;;;5007983;28;20045;-73
2022/11/04 13:32:00;;;;;;;8.65;1.40;;;12.20;99.90;;;;;;5003604;28;20049;-72
2022/11/04 13:34:29;;;;;;;11.25;1.50;;;12.20;99.90;;;;;;5012746;28;20086;-72
2022/11/04 13:37:16;;;;;;;9.07;1.42;;;12.20;99.90;;;;;;5001666;28;20053;-72
2022/11/04 13:39:50;;;;;;;14.10;1.50;;;12.20;99.90;;;;;;4985371;28;20495;-73